Time;durP1;ratioP1;P1;durP2;ratioP2;P2;SDS_P1;SDS_P2;PMS_P1;PMS_P2;Temp;Humidity;BMP_temperature;BMP_pressure;BME280_temperature;BME280_humidity;BME280_pressure;Samples;Min_cycle;Max_cycle;Signal;HPM_P1;HPM_P2
2022/11/04 00:02:18;;;;;;;14.85;11.45;;;;;;;;;;1974823;72;26225;-73
2022/11/04 00:04:47;;;;;;;17.87;11.97;;;;;;;;;;1940565;72;26324;-73
2022/11/04 00:10:02;;;;;;;14.90;9.65;;;;;;;;;;1975251;72;26290;-74
2022/11/04 00:12:30;;;;;;;14.83;9.57;;;;;;;;;;1920859;74;26239;-74
2022/11/04 00:17:18;;;;;;;14.07;8.87;;;;;;;;;;1899338;74;26228;-75
2022/11/04 00:17:29;;;;;;;8.40;6.83;;;;;;;;;;1936271;72;26377;-73
2022/11/04 00:33:53;;;;;;;8.45;4.50;;;;;;;;;;1932029;74;26524;-73
2022/11/04 00:36:22;;;;;;;9.30;4.80;;;;;;;;;;1932910;74;26240;-73
2022/11/04 00:38:52;;;;;;;11.25;4.70;;;;;;;;;;1932831;74;26241;-73
2022/11/04 00:41:27;;;;;;;11.20;4.30;;;;;;;;;;1974788;72;26210;-73
2022/11/04 00:43:56;;;;;;;6.20;3.85;;;;;;;;;;1920844;74;26243;-73
2022/11/04 00:46:25;;;;;;;8.50;4.37;;;;;;;;;;1932722;74;26652;-73
2022/11/04 00:48:53;;;;;;;11.90;5.70;;;;;;;;;;1974989;72;26241;-73
2022/11/04 00:51:22;;;;;;;10.40;5.10;;;;;;;;;;1975090;72;26182;-73
2022/11/04 00:53:51;;;;;;;8.50;5.05;;;;;;;;;;1921204;74;26841;-73
2022/11/04 00:56:19;;;;;;;9.80;6.30;;;;;;;;;;1932565;74;26236;-73
2022/11/04 00:58:48;;;;;;;8.00;5.30;;;;;;;;;;1940288;72;26264;-73
2022/11/04 01:01:18;;;;;;;8.03;5.27;;;;;;;;;;1940599;72;26205;-73
2022/11/04 01:03:46;;;;;;;8.30;4.63;;;;;;;;;;1921004;74;26239;-73
2022/11/04 01:06:15;;;;;;;7.50;4.50;;;;;;;;;;1899978;74;26692;-73
2022/11/04 01:08:44;;;;;;;9.70;4.95;;;;;;;;;;1932859;74;26934;-73
2022/11/04 01:11:12;;;;;;;12.10;5.30;;;;;;;;;;1940207;74;26235;-73
2022/11/04 01:13:41;;;;;;;9.60;6.00;;;;;;;;;;1974756;72;26169;-73
2022/11/04 01:16:10;;;;;;;7.50;5.63;;;;;;;;;;1974821;72;27442;-73
2022/11/04 01:18:39;;;;;;;15.57;8.17;;;;;;;;;;1975018;72;26233;-73
2022/11/04 01:21:09;;;;;;;15.73;9.70;;;;;;;;;;1974747;72;26221;-73
2022/11/04 01:23:37;;;;;;;18.23;9.83;;;;;;;;;;1920732;74;26223;-73
2022/11/04 01:26:06;;;;;;;14.55;9.75;;;;;;;;;;1934395;74;26315;-72
2022/11/04 01:28:35;;;;;;;16.70;11.00;;;;;;;;;;1900332;74;26244;-73
2022/11/04 01:31:05;;;;;;;23.55;14.70;;;;;;;;;;1940369;72;26306;-72
2022/11/04 01:33:34;;;;;;;28.20;15.50;;;;;;;;;;1974926;72;26224;-73
2022/11/04 01:36:03;;;;;;;25.90;17.40;;;;;;;;;;1870948;74;26252;-73
2022/11/04 01:38:33;;;;;;;31.90;20.90;;;;;;;;;;1979139;72;27371;-72
2022/11/04 01:41:01;;;;;;;29.90;19.55;;;;;;;;;;1974573;72;26197;-72
2022/11/04 01:43:42;;;;;;;29.40;19.70;;;;;;;;;;1974963;72;26224;-73
2022/11/04 01:46:12;;;;;;;30.47;19.20;;;;;;;;;;1975149;72;26282;-73
2022/11/04 01:48:40;;;;;;;29.65;19.80;;;;;;;;;;1977070;72;26222;-72
2022/11/04 01:51:09;;;;;;;26.90;18.15;;;;;;;;;;1974973;72;26224;-73
2022/11/04 01:53:39;;;;;;;27.90;17.40;;;;;;;;;;1940374;72;26225;-72
2022/11/04 01:56:10;;;;;;;24.75;18.80;;;;;;;;;;1974408;72;26236;-74
2022/11/04 01:58:40;;;;;;;28.90;17.50;;;;;;;;;;1975504;72;26308;-74
2022/11/04 02:01:09;;;;;;;23.67;17.07;;;;;;;;;;1974781;72;26662;-73
2022/11/04 02:03:40;;;;;;;23.15;15.65;;;;;;;;;;1974794;72;26225;-73
2022/11/04 02:06:09;;;;;;;21.70;16.40;;;;;;;;;;1974757;72;26220;-73
2022/11/04 02:08:38;;;;;;;26.27;15.43;;;;;;;;;;1940107;72;26327;-73
2022/11/04 02:11:07;;;;;;;23.30;15.85;;;;;;;;;;1940168;72;26298;-72
2022/11/04 02:13:36;;;;;;;25.20;16.45;;;;;;;;;;1940376;72;26232;-73
2022/11/04 02:16:06;;;;;;;22.00;15.90;;;;;;;;;;1939706;72;26228;-73
2022/11/04 02:18:38;;;;;;;17.75;14.55;;;;;;;;;;1974337;72;26333;-73
2022/11/04 02:21:12;;;;;;;20.00;15.40;;;;;;;;;;1976277;72;26232;-73
2022/11/04 02:23:58;;;;;;;19.70;14.97;;;;;;;;;;1974833;72;26216;-73
2022/11/04 02:26:46;;;;;;;22.70;14.93;;;;;;;;;;1976434;72;26263;-72
2022/11/04 02:29:32;;;;;;;19.60;13.77;;;;;;;;;;1896900;74;26247;-72
2022/11/04 02:32:04;;;;;;;18.95;13.10;;;;;;;;;;1978972;72;26831;-72
2022/11/04 02:34:36;;;;;;;17.63;12.60;;;;;;;;;;1974876;72;26258;-72
2022/11/04 02:37:06;;;;;;;17.53;11.90;;;;;;;;;;1974527;72;26236;-72
2022/11/04 02:39:36;;;;;;;17.50;11.30;;;;;;;;;;1974978;72;27287;-72
2022/11/04 02:42:06;;;;;;;16.77;10.57;;;;;;;;;;1975645;72;26784;-73
2022/11/04 02:44:36;;;;;;;13.70;10.10;;;;;;;;;;1975241;72;26305;-72
2022/11/04 02:47:06;;;;;;;15.13;9.50;;;;;;;;;;1976217;72;26309;-73
2022/11/04 02:49:35;;;;;;;11.03;8.27;;;;;;;;;;1922089;74;26309;-72
2022/11/04 02:52:05;;;;;;;13.63;8.50;;;;;;;;;;1933480;74;26713;-74
2022/11/04 02:54:35;;;;;;;11.63;7.73;;;;;;;;;;1975628;72;26240;-74
2022/11/04 02:57:05;;;;;;;12.37;7.97;;;;;;;;;;1975582;72;26682;-72
2022/11/04 02:59:35;;;;;;;12.00;7.37;;;;;;;;;;1921087;74;26266;-73
2022/11/04 03:02:05;;;;;;;11.63;7.30;;;;;;;;;;1932656;74;26255;-72
2022/11/04 03:04:35;;;;;;;8.97;7.07;;;;;;;;;;1974674;72;26532;-73
2022/11/04 03:07:05;;;;;;;13.80;7.30;;;;;;;;;;1974871;72;26510;-74
2022/11/04 03:09:34;;;;;;;11.00;6.63;;;;;;;;;;1921114;74;26239;-75
2022/11/04 03:12:04;;;;;;;10.30;5.77;;;;;;;;;;1932734;74;26752;-74
2022/11/04 03:14:34;;;;;;;8.90;5.70;;;;;;;;;;1933109;74;26329;-73
2022/11/04 03:17:05;;;;;;;12.63;6.17;;;;;;;;;;1932710;74;26322;-73
2022/11/04 03:19:34;;;;;;;11.23;7.10;;;;;;;;;;1974928;72;26294;-72
2022/11/04 03:22:04;;;;;;;13.55;6.85;;;;;;;;;;1897385;74;26872;-72
2022/11/04 03:24:34;;;;;;;12.73;7.43;;;;;;;;;;1932990;74;26711;-72
2022/11/04 03:27:05;;;;;;;10.27;6.80;;;;;;;;;;1932533;74;26829;-72
2022/11/04 03:29:35;;;;;;;12.73;6.90;;;;;;;;;;1975259;72;26240;-74
2022/11/04 03:32:06;;;;;;;11.33;6.43;;;;;;;;;;1920739;74;26240;-72
2022/11/04 03:34:35;;;;;;;10.20;6.47;;;;;;;;;;1933085;74;26243;-72
2022/11/04 03:37:04;;;;;;;13.23;6.30;;;;;;;;;;1975115;72;26286;-72
2022/11/04 03:39:32;;;;;;;10.60;5.97;;;;;;;;;;1921189;74;26230;-73
2022/11/04 03:42:18;;;;;;;9.83;7.77;;;;;;;;;;1872621;74;26321;-72
2022/11/04 03:44:34;;;;;;;11.45;7.75;;;;;;;;;;1971657;72;26229;-73
2022/11/04 03:47:03;;;;;;;10.97;5.50;;;;;;;;;;1921044;74;26223;-73
2022/11/04 03:49:31;;;;;;;13.30;5.30;;;;;;;;;;1899318;74;26708;-73
2022/11/04 03:51:59;;;;;;;12.50;5.40;;;;;;;;;;1932841;74;26244;-72
2022/11/04 03:54:31;;;;;;;9.40;5.03;;;;;;;;;;1932915;74;26231;-73
2022/11/04 03:57:05;;;;;;;9.60;4.70;;;;;;;;;;1974593;72;26225;-73
2022/11/04 03:59:48;;;;;;;9.20;4.70;;;;;;;;;;1974205;72;26244;-73
2022/11/04 04:02:18;;;;;;;9.30;5.27;;;;;;;;;;1975272;72;26217;-73
2022/11/04 04:04:48;;;;;;;11.00;8.10;;;;;;;;;;1920977;74;26548;-73
2022/11/04 04:07:18;;;;;;;10.87;7.80;;;;;;;;;;1932132;74;26247;-73
2022/11/04 04:09:48;;;;;;;10.17;7.80;;;;;;;;;;1975232;72;26306;-73
2022/11/04 04:12:18;;;;;;;10.65;8.10;;;;;;;;;;1920934;74;27365;-73
2022/11/04 04:14:48;;;;;;;10.40;8.70;;;;;;;;;;1933198;74;26845;-73
2022/11/04 04:17:18;;;;;;;12.60;8.40;;;;;;;;;;1932799;74;26376;-72
2022/11/04 04:19:48;;;;;;;11.15;6.45;;;;;;;;;;1940344;74;26862;-73
2022/11/04 04:22:18;;;;;;;12.50;6.90;;;;;;;;;;1974956;72;26869;-73
2022/11/04 04:27:35;;;;;;;15.60;8.90;;;;;;;;;;1945539;72;26373;-74
2022/11/04 04:30:06;;;;;;;15.70;8.80;;;;;;;;;;1921123;74;26548;-72
2022/11/04 04:32:36;;;;;;;15.20;8.87;;;;;;;;;;1933553;74;26232;-74
2022/11/04 04:37:52;;;;;;;17.85;10.85;;;;;;;;;;1921230;74;26666;-74
2022/11/04 04:45:56;;;;;;;21.90;13.10;;;;;;;;;;1975174;72;26852;-72
2022/11/04 04:48:24;;;;;;;22.65;13.40;;;;;;;;;;1975225;72;26232;-74
2022/11/04 04:50:55;;;;;;;20.07;14.20;;;;;;;;;;1974942;72;26228;-74
2022/11/04 04:53:24;;;;;;;22.77;14.03;;;;;;;;;;1975119;72;26240;-73
2022/11/04 04:55:52;;;;;;;22.30;14.30;;;;;;;;;;1974616;72;26236;-73
2022/11/04 04:58:20;;;;;;;22.23;15.33;;;;;;;;;;1974944;72;26756;-72
2022/11/04 05:00:49;;;;;;;24.00;14.40;;;;;;;;;;1930535;72;616213;-73
2022/11/04 05:03:17;;;;;;;24.07;16.10;;;;;;;;;;1820447;79;27392;-73
2022/11/04 05:05:46;;;;;;;30.73;16.60;;;;;;;;;;1820239;79;26874;-72
2022/11/04 05:08:14;;;;;;;28.05;16.55;;;;;;;;;;1767449;79;26286;-73
2022/11/04 05:10:42;;;;;;;27.00;16.10;;;;;;;;;;1841109;78;26263;-73
2022/11/04 05:13:28;;;;;;;25.10;16.85;;;;;;;;;;1815042;78;26370;-73
2022/11/04 05:15:59;;;;;;;24.65;16.65;;;;;;;;;;1841718;78;26375;-74
2022/11/04 05:18:28;;;;;;;31.67;17.60;;;;;;;;;;1840717;78;26921;-73
2022/11/04 05:20:56;;;;;;;32.00;17.60;;;;;;;;;;1841102;78;26262;-73
2022/11/04 05:23:25;;;;;;;25.35;17.70;;;;;;;;;;1820426;79;26266;-73
2022/11/04 05:25:53;;;;;;;29.23;17.33;;;;;;;;;;1790547;77;26298;-73
2022/11/04 05:28:22;;;;;;;30.33;16.47;;;;;;;;;;1762046;80;26277;-73
2022/11/04 05:30:51;;;;;;;25.67;17.53;;;;;;;;;;1788919;80;26313;-73
2022/11/04 05:33:19;;;;;;;26.33;17.50;;;;;;;;;;1790144;79;26340;-73
2022/11/04 05:35:48;;;;;;;27.27;16.97;;;;;;;;;;1820092;79;26306;-73
2022/11/04 05:38:16;;;;;;;32.00;17.70;;;;;;;;;;1820339;79;26755;-73
2022/11/04 05:40:44;;;;;;;26.50;16.80;;;;;;;;;;1820366;79;26290;-73
2022/11/04 05:43:12;;;;;;;25.80;16.50;;;;;;;;;;1820502;79;26336;-73
2022/11/04 05:45:41;;;;;;;30.73;17.40;;;;;;;;;;1814865;78;26270;-73
2022/11/04 05:48:09;;;;;;;25.77;16.97;;;;;;;;;;1840955;78;26342;-73
2022/11/04 05:50:38;;;;;;;27.65;16.90;;;;;;;;;;1820369;79;26317;-73
2022/11/04 05:53:06;;;;;;;29.75;17.05;;;;;;;;;;1790388;79;26305;-72
2022/11/04 05:55:35;;;;;;;31.20;18.20;;;;;;;;;;1820143;79;26262;-73
2022/11/04 05:58:03;;;;;;;33.20;19.90;;;;;;;;;;1820239;79;26274;-73
2022/11/04 06:00:30;;;;;;;;;;;;;;;;;;1820432;79;26225;-72
2022/11/04 06:02:58;;;;;;;32.23;19.27;;;;;;;;;;1841134;78;26349;-73
2022/11/04 06:05:27;;;;;;;27.97;18.67;;;;;;;;;;1815454;78;27646;-72
2022/11/04 06:07:56;;;;;;;33.10;18.63;;;;;;;;;;1841694;78;26282;-72
2022/11/04 06:10:25;;;;;;;28.37;18.57;;;;;;;;;;1841833;78;26283;-72
2022/11/04 06:12:53;;;;;;;27.77;17.93;;;;;;;;;;1841905;78;26700;-72
2022/11/04 06:15:22;;;;;;;36.20;18.20;;;;;;;;;;1815477;78;26286;-72
2022/11/04 06:17:50;;;;;;;28.15;18.60;;;;;;;;;;1841275;78;26764;-73
2022/11/04 06:20:19;;;;;;;27.50;15.65;;;;;;;;;;1841285;78;26349;-73
2022/11/04 06:22:48;;;;;;;27.50;15.70;;;;;;;;;;1820719;79;26282;-73
2022/11/04 06:25:16;;;;;;;25.40;15.00;;;;;;;;;;1790899;79;26270;-73
2022/11/04 06:27:46;;;;;;;25.20;14.65;;;;;;;;;;1820223;77;26325;-73
2022/11/04 06:30:15;;;;;;;25.60;14.40;;;;;;;;;;1820305;79;26329;-73
2022/11/04 06:32:44;;;;;;;23.60;14.80;;;;;;;;;;1819885;79;26274;-73
2022/11/04 06:35:13;;;;;;;24.70;13.55;;;;;;;;;;1814764;78;26275;-73
2022/11/04 06:37:41;;;;;;;25.70;14.37;;;;;;;;;;1841010;78;26274;-73
2022/11/04 06:40:10;;;;;;;21.97;15.47;;;;;;;;;;1840656;78;26262;-73
2022/11/04 06:42:39;;;;;;;25.30;14.30;;;;;;;;;;1840817;78;26392;-73
2022/11/04 06:45:08;;;;;;;26.60;15.33;;;;;;;;;;1840880;78;26707;-73
2022/11/04 06:47:36;;;;;;;24.13;14.13;;;;;;;;;;1841188;78;26286;-73
2022/11/04 06:50:05;;;;;;;28.33;15.43;;;;;;;;;;1790748;78;26272;-73
2022/11/04 06:52:34;;;;;;;23.30;15.83;;;;;;;;;;1841156;78;26266;-73
2022/11/04 06:55:02;;;;;;;29.23;16.17;;;;;;;;;;1840864;78;26878;-73
2022/11/04 06:57:30;;;;;;;22.27;15.77;;;;;;;;;;1790767;78;26356;-73
2022/11/04 06:59:59;;;;;;;33.15;15.10;;;;;;;;;;1841395;78;26810;-73
2022/11/04 07:02:26;;;;;;;;;;;;;;;;;;1820488;79;26735;-73
2022/11/04 07:04:54;;;;;;;22.90;14.05;;;;;;;;;;1841086;78;27319;-74
2022/11/04 07:07:23;;;;;;;24.30;14.53;;;;;;;;;;1814808;78;26720;-74
2022/11/04 07:09:51;;;;;;;27.83;15.00;;;;;;;;;;1841225;78;26268;-73
2022/11/04 07:12:21;;;;;;;25.17;14.60;;;;;;;;;;1814945;78;27097;-73
2022/11/04 07:14:49;;;;;;;30.60;16.60;;;;;;;;;;1820577;78;26282;-74
2022/11/04 07:17:18;;;;;;;26.13;16.33;;;;;;;;;;1820102;79;26233;-74
2022/11/04 07:19:46;;;;;;;29.10;15.85;;;;;;;;;;1820522;79;26287;-74
2022/11/04 07:22:15;;;;;;;27.65;16.00;;;;;;;;;;1790789;78;26294;-75
2022/11/04 07:24:43;;;;;;;29.30;16.95;;;;;;;;;;1815237;78;26259;-74
2022/11/04 07:27:12;;;;;;;24.80;16.40;;;;;;;;;;1840874;76;26917;-74
2022/11/04 07:29:41;;;;;;;27.40;18.15;;;;;;;;;;1820108;79;26290;-74
2022/11/04 07:32:09;;;;;;;27.53;17.70;;;;;;;;;;1819759;79;26312;-74
2022/11/04 07:34:37;;;;;;;29.00;18.30;;;;;;;;;;1814070;78;26759;-74
2022/11/04 07:37:06;;;;;;;28.53;18.47;;;;;;;;;;1840034;78;26282;-74
2022/11/04 07:39:34;;;;;;;29.57;19.40;;;;;;;;;;1819593;79;26344;-74
2022/11/04 07:42:03;;;;;;;34.60;19.37;;;;;;;;;;1819762;79;26414;-74
2022/11/04 07:44:31;;;;;;;25.97;18.70;;;;;;;;;;1819889;79;26282;-74
2022/11/04 07:47:00;;;;;;;29.33;19.00;;;;;;;;;;1789671;79;26258;-74
2022/11/04 07:49:28;;;;;;;28.53;18.57;;;;;;;;;;1820056;79;26356;-74
2022/11/04 07:51:57;;;;;;;27.97;18.03;;;;;;;;;;1819677;79;27424;-74
2022/11/04 07:54:25;;;;;;;26.13;18.13;;;;;;;;;;1790198;79;26278;-73
2022/11/04 07:56:54;;;;;;;31.67;17.67;;;;;;;;;;1819725;79;26274;-74
2022/11/04 07:59:23;;;;;;;25.83;17.97;;;;;;;;;;1820095;79;26787;-74
2022/11/04 08:01:52;;;;;;;25.50;16.70;;;;;;;;;;1819839;79;27469;-73
2022/11/04 08:04:21;;;;;;;24.60;16.45;;;;;;;;;;1819640;79;26352;-74
2022/11/04 08:06:49;;;;;;;29.27;17.63;;;;;;;;;;1820040;79;26278;-72
2022/11/04 08:09:17;;;;;;;30.17;15.93;;;;;;;;;;1820237;79;26266;-74
2022/11/04 08:11:46;;;;;;;26.57;16.07;;;;;;;;;;1819922;79;26440;-75
2022/11/04 08:14:14;;;;;;;22.95;15.45;;;;;;;;;;1819621;79;26804;-74
2022/11/04 08:16:43;;;;;;;24.00;15.10;;;;;;;;;;1819698;79;26282;-73
2022/11/04 08:19:11;;;;;;;27.97;15.13;;;;;;;;;;1814199;78;26274;-74
2022/11/04 08:21:40;;;;;;;30.90;15.35;;;;;;;;;;1819763;79;26560;-74
2022/11/04 08:24:08;;;;;;;23.70;14.70;;;;;;;;;;1820020;79;26282;-74
2022/11/04 08:26:37;;;;;;;20.67;14.43;;;;;;;;;;1814310;78;26278;-74
2022/11/04 08:29:06;;;;;;;22.20;14.03;;;;;;;;;;1814756;76;26334;-74
2022/11/04 08:31:36;;;;;;;26.63;14.17;;;;;;;;;;1840515;78;26274;-74
2022/11/04 08:34:07;;;;;;;21.95;14.00;;;;;;;;;;1840634;78;26341;-73
2022/11/04 08:36:36;;;;;;;18.17;13.47;;;;;;;;;;1790865;78;26259;-74
2022/11/04 08:39:05;;;;;;;22.30;13.70;;;;;;;;;;1814714;78;26771;-74
2022/11/04 08:41:35;;;;;;;29.47;13.80;;;;;;;;;;1819759;79;26306;-73
2022/11/04 08:44:04;;;;;;;23.70;13.20;;;;;;;;;;1820077;79;26258;-73
2022/11/04 08:46:34;;;;;;;17.13;13.00;;;;;;;;;;1819694;79;26294;-73
2022/11/04 08:49:02;;;;;;;19.50;12.90;;;;;;;;;;1819336;79;26382;-73
2022/11/04 08:51:34;;;;;;;21.75;13.20;;;;;;;;;;1819888;79;26394;-73
2022/11/04 08:54:03;;;;;;;21.70;13.30;;;;;;;;;;1820048;79;26380;-73
2022/11/04 08:56:33;;;;;;;25.50;13.13;;;;;;;;;;1819379;79;26893;-73
2022/11/04 08:59:01;;;;;;;18.50;12.20;;;;;;;;;;1816685;78;26236;-73
2022/11/04 09:01:30;;;;;;;17.30;12.30;;;;;;;;;;1842477;78;26285;-73
2022/11/04 09:03:59;;;;;;;17.15;11.85;;;;;;;;;;1821886;79;26226;-73
2022/11/04 09:06:28;;;;;;;18.40;12.10;;;;;;;;;;1792050;79;26238;-73
2022/11/04 09:09:02;;;;;;;19.40;12.30;;;;;;;;;;1816616;78;26807;-74
2022/11/04 09:11:28;;;;;;;20.60;11.90;;;;;;;;;;1817160;78;26227;-75
2022/11/04 09:13:58;;;;;;;20.65;11.90;;;;;;;;;;1816116;78;26329;-73
2022/11/04 09:16:27;;;;;;;19.85;11.05;;;;;;;;;;1819836;79;26285;-73
2022/11/04 09:18:57;;;;;;;19.30;11.35;;;;;;;;;;1820142;79;26750;-73
2022/11/04 09:21:25;;;;;;;16.90;10.00;;;;;;;;;;1819903;79;26853;-73
2022/11/04 09:23:54;;;;;;;16.73;9.67;;;;;;;;;;1819886;79;26767;-72
2022/11/04 09:26:23;;;;;;;13.60;9.27;;;;;;;;;;1815277;78;26259;-73
2022/11/04 09:28:54;;;;;;;15.90;9.13;;;;;;;;;;1840875;75;26316;-73
2022/11/04 09:31:22;;;;;;;15.93;9.23;;;;;;;;;;1841309;78;26867;-72
2022/11/04 09:33:53;;;;;;;17.50;9.10;;;;;;;;;;1841368;78;26438;-73
2022/11/04 09:36:22;;;;;;;14.43;8.77;;;;;;;;;;1840915;78;26271;-73
2022/11/04 09:38:50;;;;;;;16.83;9.10;;;;;;;;;;1841147;78;26787;-73
2022/11/04 09:41:46;;;;;;;13.97;7.90;;;;;;;;;;1840896;78;26564;-73
2022/11/04 09:44:24;;;;;;;12.55;7.80;;;;;;;;;;1827697;78;26794;-73
2022/11/04 09:46:53;;;;;;;15.07;8.20;;;;;;;;;;1840726;78;26748;-74
2022/11/04 09:49:22;;;;;;;14.50;7.47;;;;;;;;;;1842276;78;26736;-74
2022/11/04 09:51:51;;;;;;;12.00;7.10;;;;;;;;;;1816835;78;27011;-74
2022/11/04 09:54:21;;;;;;;13.60;7.53;;;;;;;;;;1842277;78;27098;-74
2022/11/04 09:56:51;;;;;;;11.03;7.40;;;;;;;;;;1842289;78;26251;-74
2022/11/04 09:59:26;;;;;;;12.83;7.17;;;;;;;;;;1816886;78;26799;-73
2022/11/04 10:02:00;;;;;;;11.85;7.05;;;;;;;;;;1842257;78;27054;-74
2022/11/04 10:04:30;;;;;;;14.13;6.57;;;;;;;;;;1842523;78;26305;-74
2022/11/04 10:07:03;;;;;;;14.25;6.15;;;;;;;;;;1815930;78;26229;-74
2022/11/04 10:09:36;;;;;;;10.37;5.90;;;;;;;;;;1842542;78;26290;-74
2022/11/04 10:12:07;;;;;;;10.70;6.50;;;;;;;;;;1842350;78;26307;-75
2022/11/04 10:15:00;;;;;;;9.33;5.53;;;;;;;;;;1840658;78;26264;-75
2022/11/04 10:17:33;;;;;;;8.33;4.43;;;;;;;;;;1837264;78;26272;-78
2022/11/04 10:20:03;;;;;;;9.00;4.73;;;;;;;;;;1840748;78;26250;-71
2022/11/04 10:22:33;;;;;;;8.37;4.90;;;;;;;;;;1839465;78;26349;-74
2022/11/04 10:25:06;;;;;;;9.77;4.90;;;;;;;;;;1840774;78;26263;-74
2022/11/04 10:27:37;;;;;;;9.33;3.93;;;;;;;;;;1840354;78;26360;-74
2022/11/04 10:30:08;;;;;;;10.20;4.67;;;;;;;;;;1840382;75;26384;-74
2022/11/04 10:32:39;;;;;;;7.23;3.77;;;;;;;;;;1840426;78;26834;-75
2022/11/04 10:35:12;;;;;;;9.37;3.83;;;;;;;;;;1840443;78;26323;-74
2022/11/04 10:37:40;;;;;;;7.10;3.95;;;;;;;;;;1840245;78;26266;-74
2022/11/04 10:40:17;;;;;;;6.77;3.50;;;;;;;;;;1840301;78;26267;-74
2022/11/04 10:42:46;;;;;;;7.80;2.90;;;;;;;;;;1840292;78;26298;-75
2022/11/04 10:45:14;;;;;;;9.43;3.00;;;;;;;;;;1840310;78;26259;-76
2022/11/04 10:47:45;;;;;;;7.57;3.20;;;;;;;;;;1840354;78;26333;-74
2022/11/04 10:50:19;;;;;;;5.70;2.80;;;;;;;;;;1840423;78;26286;-75
2022/11/04 10:52:48;;;;;;;5.35;2.40;;;;;;;;;;1840140;78;26282;-75
2022/11/04 10:55:18;;;;;;;7.30;2.60;;;;;;;;;;1840383;78;26767;-75
2022/11/04 10:57:46;;;;;;;9.40;2.60;;;;;;;;;;1839400;78;26303;-74
2022/11/04 11:00:32;;;;;;;5.70;2.53;;;;;;;;;;1789986;78;26278;-74
2022/11/04 11:03:01;;;;;;;3.75;2.05;;;;;;;;;;1840354;78;26328;-74
2022/11/04 11:05:30;;;;;;;5.47;1.80;;;;;;;;;;1840413;78;26274;-74
2022/11/04 11:07:58;;;;;;;6.70;2.20;;;;;;;;;;1840638;78;26278;-74
2022/11/04 11:10:28;;;;;;;4.27;2.07;;;;;;;;;;1840449;78;26763;-74
2022/11/04 11:12:58;;;;;;;6.70;2.40;;;;;;;;;;1819812;79;26294;-74
2022/11/04 11:15:28;;;;;;;6.00;2.50;;;;;;;;;;1840607;78;26446;-74
2022/11/04 11:17:59;;;;;;;6.95;2.35;;;;;;;;;;1840587;78;26867;-73
2022/11/04 11:20:31;;;;;;;5.07;1.93;;;;;;;;;;1842369;78;26480;-74
2022/11/04 11:22:58;;;;;;;4.30;1.87;;;;;;;;;;1842471;78;26247;-74
2022/11/04 11:25:27;;;;;;;7.37;2.00;;;;;;;;;;1842217;78;26238;-74
2022/11/04 11:27:57;;;;;;;4.57;2.33;;;;;;;;;;1842341;78;26262;-74
2022/11/04 11:30:27;;;;;;;7.00;1.90;;;;;;;;;;1842235;75;26287;-75
2022/11/04 11:32:57;;;;;;;3.57;1.87;;;;;;;;;;1842561;78;27038;-74
2022/11/04 11:35:27;;;;;;;5.37;1.80;;;;;;;;;;1842352;78;26227;-74
2022/11/04 11:37:56;;;;;;;8.47;2.07;;;;;;;;;;1842449;78;26226;-74
2022/11/04 11:40:26;;;;;;;6.43;1.80;;;;;;;;;;1842385;78;26226;-74
2022/11/04 11:42:55;;;;;;;6.60;2.00;;;;;;;;;;1842618;78;26842;-74
2022/11/04 11:45:24;;;;;;;4.53;1.80;;;;;;;;;;1842300;78;26270;-74
2022/11/04 11:47:55;;;;;;;6.70;1.90;;;;;;;;;;1842397;78;27057;-74
2022/11/04 11:50:29;;;;;;;5.97;2.10;;;;;;;;;;1842401;78;26231;-74
2022/11/04 11:52:56;;;;;;;6.33;1.77;;;;;;;;;;1815998;78;26242;-74
2022/11/04 11:55:25;;;;;;;4.37;1.90;;;;;;;;;;1840584;78;26332;-74
2022/11/04 11:57:58;;;;;;;2.90;1.77;;;;;;;;;;1842557;78;26290;-73
2022/11/04 12:00:31;;;;;;;5.23;1.90;;;;;;;;;;1842424;78;26227;-74
2022/11/04 12:03:01;;;;;;;3.60;1.57;;;;;;;;;;1816048;78;26230;-74
2022/11/04 12:05:32;;;;;;;5.50;1.87;;;;;;;;;;1840606;78;26290;-73
2022/11/04 12:08:02;;;;;;;3.20;1.70;;;;;;;;;;1842579;78;26243;-73
2022/11/04 12:10:32;;;;;;;3.05;1.70;;;;;;;;;;1840418;78;26329;-73
2022/11/04 12:13:04;;;;;;;3.93;1.67;;;;;;;;;;1814357;78;26275;-73
2022/11/04 12:15:44;;;;;;;4.60;1.63;;;;;;;;;;1840318;78;26274;-73
2022/11/04 12:18:47;;;;;;;3.50;1.70;;;;;;;;;;1839768;78;26621;-73
2022/11/04 12:24:17;;;;;;;6.07;1.80;;;;;;;;;;2055292;69;27721;-74
2022/11/04 12:26:48;;;;;;;2.80;1.40;;;;;;;;;;2021218;71;26326;-74
2022/11/04 12:29:26;;;;;;;5.03;1.83;;;;;;;;;;2021182;70;27278;-74
2022/11/04 12:31:54;;;;;;;4.57;1.67;;;;;;;;;;2020803;70;26223;-74
2022/11/04 12:34:27;;;;;;;3.60;1.57;;;;;;;;;;2021045;71;26333;-74
2022/11/04 12:37:00;;;;;;;4.47;1.87;;;;;;;;;;1922580;74;26238;-74
2022/11/04 12:39:39;;;;;;;2.50;1.60;;;;;;;;;;1977003;72;26208;-73
2022/11/04 12:42:10;;;;;;;4.77;1.87;;;;;;;;;;1884757;75;26970;-74
2022/11/04 12:44:42;;;;;;;3.83;1.80;;;;;;;;;;1906769;74;26539;-74
2022/11/04 12:47:15;;;;;;;4.60;1.93;;;;;;;;;;1906726;75;26241;-73
2022/11/04 12:49:46;;;;;;;4.00;1.90;;;;;;;;;;1906923;75;26331;-74
2022/11/04 12:52:18;;;;;;;4.73;1.80;;;;;;;;;;1906988;75;26305;-73
2022/11/04 12:54:50;;;;;;;2.93;1.93;;;;;;;;;;1906679;75;26320;-73
2022/11/04 12:57:20;;;;;;;4.23;2.10;;;;;;;;;;1873655;75;26249;-73
2022/11/04 13:00:05;;;;;;;3.73;1.97;;;;;;;;;;1874093;75;26230;-72
2022/11/04 13:02:35;;;;;;;2.10;1.40;;;;;;;;;;1906542;75;26316;-73
2022/11/04 13:05:05;;;;;;;4.77;1.73;;;;;;;;;;1907103;75;26249;-73
2022/11/04 13:07:35;;;;;;;2.83;1.60;;;;;;;;;;1942337;73;26241;-73
2022/11/04 13:10:07;;;;;;;2.37;1.50;;;;;;;;;;1930238;74;26894;-73
2022/11/04 13:12:36;;;;;;;4.40;1.83;;;;;;;;;;1904707;75;26786;-73
2022/11/04 13:15:08;;;;;;;4.30;1.70;;;;;;;;;;1904686;75;26359;-73
2022/11/04 13:17:38;;;;;;;2.97;1.40;;;;;;;;;;1905666;75;26255;-73
2022/11/04 13:20:10;;;;;;;5.10;2.10;;;;;;;;;;1906464;75;26831;-75
2022/11/04 13:22:39;;;;;;;2.73;1.90;;;;;;;;;;1873207;75;26253;-72
2022/11/04 13:25:10;;;;;;;2.90;1.83;;;;;;;;;;1948040;73;26755;-73
2022/11/04 13:27:40;;;;;;;4.17;1.80;;;;;;;;;;1919226;74;26624;-73
2022/11/04 13:30:11;;;;;;;3.53;2.07;;;;;;;;;;1910045;75;26240;-73
2022/11/04 13:32:42;;;;;;;3.00;2.00;;;;;;;;;;1909463;75;26193;-73
2022/11/04 13:35:12;;;;;;;3.20;1.90;;;;;;;;;;1909016;75;26248;-73
2022/11/04 13:37:42;;;;;;;2.93;1.90;;;;;;;;;;1908452;75;26190;-73
2022/11/04 13:40:13;;;;;;;1.53;1.40;;;;;;;;;;1909487;75;26197;-73
2022/11/04 13:42:46;;;;;;;3.00;1.60;;;;;;;;;;1909399;74;26253;-73
2022/11/04 13:45:16;;;;;;;4.03;2.73;;;;;;;;;;1909324;75;26194;-73
2022/11/04 13:47:49;;;;;;;3.53;2.80;;;;;;;;;;1947382;73;26742;-76
2022/11/04 13:50:28;;;;;;;4.90;3.17;;;;;;;;;;1918888;75;26256;-73
2022/11/04 13:52:57;;;;;;;3.43;2.63;;;;;;;;;;1909326;75;26202;-73
2022/11/04 13:55:25;;;;;;;4.20;2.77;;;;;;;;;;1947365;73;26191;-73
2022/11/04 13:57:54;;;;;;;3.00;2.70;;;;;;;;;;1919030;75;26471;-73
2022/11/04 14:00:24;;;;;;;2.80;2.47;;;;;;;;;;1909348;75;27114;-73
2022/11/04 14:02:53;;;;;;;3.30;3.00;;;;;;;;;;1947440;73;26676;-73
2022/11/04 14:05:39;;;;;;;3.60;3.30;;;;;;;;;;1918948;75;26639;-73
2022/11/04 14:08:11;;;;;;;3.30;2.60;;;;;;;;;;1909455;75;26170;-73
2022/11/04 14:10:43;;;;;;;2.90;2.70;;;;;;;;;;1909408;75;26263;-73
2022/11/04 14:13:29;;;;;;;2.90;2.70;;;;;;;;;;1947384;73;26194;-73
2022/11/04 14:16:01;;;;;;;4.53;2.70;;;;;;;;;;1919076;75;26722;-74
2022/11/04 14:18:30;;;;;;;3.30;3.00;;;;;;;;;;1909425;75;26193;-73
2022/11/04 14:21:03;;;;;;;4.60;2.40;;;;;;;;;;1908118;75;26234;-73
2022/11/04 14:23:31;;;;;;;4.00;3.00;;;;;;;;;;1945905;72;26355;-74
2022/11/04 14:26:01;;;;;;;3.60;3.30;;;;;;;;;;1895800;74;26335;-73
2022/11/04 14:28:31;;;;;;;4.03;3.20;;;;;;;;;;1904284;75;26238;-73
2022/11/04 14:31:01;;;;;;;6.23;3.17;;;;;;;;;;1947555;73;26214;-73
2022/11/04 14:33:48;;;;;;;4.37;3.13;;;;;;;;;;1919109;75;26267;-73
2022/11/04 14:36:27;;;;;;;4.00;3.27;;;;;;;;;;1909258;75;26202;-73
2022/11/04 14:38:57;;;;;;;7.20;4.17;;;;;;;;;;1946719;73;26327;-73
2022/11/04 14:41:35;;;;;;;4.50;3.80;;;;;;;;;;1916727;73;26460;-73
2022/11/04 14:44:05;;;;;;;4.77;3.97;;;;;;;;;;1904103;75;26237;-73
2022/11/04 14:46:34;;;;;;;4.40;4.00;;;;;;;;;;1907205;75;26245;-73
2022/11/04 14:49:03;;;;;;;4.30;4.00;;;;;;;;;;1907647;75;26284;-72
2022/11/04 14:51:33;;;;;;;3.90;3.70;;;;;;;;;;1945766;73;26776;-73
2022/11/04 14:54:04;;;;;;;3.60;3.30;;;;;;;;;;1916757;75;27316;-72
2022/11/04 14:56:32;;;;;;;4.30;3.90;;;;;;;;;;1907318;75;26238;-72
2022/11/04 14:59:02;;;;;;;4.27;3.87;;;;;;;;;;1902521;75;26252;-71
2022/11/04 15:01:31;;;;;;;4.73;3.30;;;;;;;;;;1929148;74;26240;-72
2022/11/04 15:04:05;;;;;;;4.10;3.70;;;;;;;;;;1903475;75;26307;-73
2022/11/04 15:06:34;;;;;;;4.83;4.43;;;;;;;;;;1903485;75;26237;-73
2022/11/04 15:09:02;;;;;;;6.10;5.00;;;;;;;;;;1945177;73;26703;-72
2022/11/04 15:14:19;;;;;;;6.65;5.80;;;;;;;;;;1908013;75;26717;-74
2022/11/04 15:16:48;;;;;;;6.15;5.55;;;;;;;;;;1907640;75;26233;-74
2022/11/04 15:19:19;;;;;;;8.20;5.53;;;;;;;;;;1945358;73;26246;-74
2022/11/04 15:21:48;;;;;;;7.00;4.60;;;;;;;;;;1918721;74;26760;-74
2022/11/04 15:24:17;;;;;;;7.47;4.57;;;;;;;;;;1909335;75;26265;-74